Skip Navigation LinksHome page > Weather > Current weather Skip Navigation Links

Current Weather

Heathrow, London

For information only: do not use for flight planning or navigation.
Latest weather
Observation time Friday, May 25, 2018 1:20 PM BST
Local time Friday, May 25, 2018 1:48 PM BST
Flight conditions Marginal Visual Meteorological Conditions
Winds
Wind direction Southwest (230°)
Winds variable from 180° to 300°
Wind speed 6 mph
Visibility 6.2 mi.
Sky condition
Ceiling 1,200 ft. broken clouds
Cloud layer broken clouds 1,200 ft.
Cloud layer broken clouds 1,600 ft.
Cloud layer overcast 2,100 ft.
Temperature 63°F
Dewpoint 55°F
Altimeter 30.06 in.Hg
Derived measurements
Relative humidity 77%
Density altitude 284 ft.
Remarks
Corrected report.
Fully automated report.
No significant changes expected in the next two hours.
METAR COR EGLL 251220Z AUTO 23005KT 180V300 9999 BKN012 BKN016 OVC021 17/13 Q1018 NOSIG

Settings

Location code

InnerDrive.Weather 4.0.6615.0 Release CLR 4.0.30319.42000
Copyright ©2018 Inner Drive Technology. All rights reserved. Portions Copyright ©1986-2018 David Braverman.

Find weather

Site navigation


Skip Navigation Links

Place info

Page info

PayPal - The safer, easier way to pay online!

Return home.

Copyright ©2018 Inner Drive Technology. Purveyors of fine, hand-crafted computer software. Page printed 2018-05-25T12:48:48 UTC.